KMYR/MYR METAR and TAF weather

Enter ICAO airport designator
Station Type Date Time Source
KMYR METAR 2021/03/01 08:56 UTC NOAA

KMYR 010856Z AUTO 19007KT 10SM CLR 18/18 A2994 RMK AO2 SLP139 T01830183 58020


Station Type Date Time Source
KMYR Decoded METAR 2021/03/01 08:56 UTC NOAA

Myrtle Beach Air Force Base, SC, United States (KMYR) 33-41N 078-56W 8M
Mar 01, 2021 - 03:56 AM EST / 2021.03.01 0856 UTC
Wind: from the S (190 degrees) at 8 MPH (7 KT):0
Visibility: 10 mile(s):0
Sky conditions: clear
Temperature: 64.9 F (18.3 C)
Dew Point: 64.9 F (18.3 C)
Relative Humidity: 100%
Pressure (altimeter): 29.94 in. Hg (1013 hPa)
Pressure tendency: 0.06 inches (2.0 hPa) lower than three hours ago
ob: KMYR 010856Z AUTO 19007KT 10SM CLR 18/18 A2994 RMK AO2 SLP139 T01830183 58020
cycle: 9

Station Type Date Time Source
KMYR TAF 2021/03/01 09:57 UTC NOAA

TAF
AMD KMYR 010855Z 0109/0206 22011KT P6SM BKN200
TEMPO 0109/0113 4SM BR SCT007
FM011300 24014G24KT P6SM VCSH SCT020 BKN150
TEMPO 0116/0120 3SM -SHRA BKN020
FM012100 31011G15KT P6SM BKN100
FM020200 34010KT P6SM OVC200

Example: see airport list